createdAt,value
2023-04-01T00:00:58.230Z,10.50
2023-04-01T00:03:28.313Z,15.00
2023-04-01T00:05:59.108Z,11.60
2023-04-01T00:08:28.347Z,10.30
2023-04-01T00:10:57.979Z,10.80
2023-04-01T00:13:27.599Z,11.70
2023-04-01T00:15:57.576Z,11.80
2023-04-01T00:18:26.167Z,17.30
2023-04-01T00:20:54.343Z,8.70
2023-04-01T00:23:22.214Z,9.00
2023-04-01T00:25:50.621Z,11.20
2023-04-01T00:28:21.031Z,12.20
2023-04-01T00:30:49.108Z,11.40
2023-04-01T00:33:17.664Z,8.60
2023-04-01T00:35:46.170Z,10.80
2023-04-01T00:38:14.533Z,11.20
2023-04-01T00:40:47.039Z,9.10
2023-04-01T00:43:21.412Z,10.20
2023-04-01T00:45:50.925Z,11.30
2023-04-01T00:48:26.292Z,12.10
2023-04-01T00:51:21.334Z,14.20
2023-04-01T00:53:53.571Z,13.60
2023-04-01T00:56:33.382Z,12.90
2023-04-01T00:59:12.188Z,13.10
2023-04-01T01:01:40.300Z,14.40
2023-04-01T01:04:08.099Z,13.20
2023-04-01T01:07:11.574Z,10.40
2023-04-01T01:10:27.407Z,13.00
2023-04-01T01:13:22.601Z,11.40
2023-04-01T01:16:11.562Z,13.00
2023-04-01T01:18:55.141Z,12.90
2023-04-01T01:21:55.039Z,12.10
2023-04-01T01:24:58.857Z,15.70
2023-04-01T01:27:28.488Z,12.00
2023-04-01T01:30:18.186Z,14.20
2023-04-01T01:33:34.210Z,13.80
2023-04-01T01:36:09.933Z,13.50
2023-04-01T01:38:38.850Z,14.50
2023-04-01T01:41:10.866Z,13.10
2023-04-01T01:43:44.270Z,13.00
2023-04-01T01:46:18.759Z,12.60
2023-04-01T01:48:48.555Z,13.40
2023-04-01T01:51:17.805Z,11.00
2023-04-01T01:53:47.581Z,11.60
2023-04-01T01:56:17.496Z,11.30
2023-04-01T01:59:00.143Z,16.40
2023-04-01T02:01:31.835Z,11.10
2023-04-01T02:04:00.418Z,12.70
2023-04-01T02:06:34.867Z,9.80
2023-04-01T02:09:07.826Z,12.00
2023-04-01T02:11:52.034Z,12.20
2023-04-01T02:14:50.494Z,13.00
2023-04-01T02:17:22.033Z,12.60
2023-04-01T02:20:05.563Z,12.80
2023-04-01T02:22:39.417Z,11.40
2023-04-01T02:25:13.467Z,11.60
2023-04-01T02:27:45.684Z,11.70
2023-04-01T02:30:17.183Z,12.40
2023-04-01T02:32:47.538Z,10.20
2023-04-01T02:35:18.577Z,9.40
2023-04-01T02:37:50.281Z,11.40
2023-04-01T02:40:18.668Z,8.50
2023-04-01T02:42:46.778Z,9.20
2023-04-01T02:45:15.510Z,15.40
2023-04-01T02:47:43.371Z,14.00
2023-04-01T02:50:11.290Z,9.30
2023-04-01T02:52:38.922Z,9.90
2023-04-01T02:55:07.916Z,9.90
2023-04-01T02:57:35.622Z,10.90
2023-04-01T03:00:04.097Z,10.80
2023-04-01T03:02:31.846Z,9.30
2023-04-01T03:04:59.794Z,10.50
2023-04-01T03:07:27.350Z,10.50
2023-04-01T03:09:54.944Z,10.60
2023-04-01T03:12:22.626Z,8.60
2023-04-01T03:14:50.347Z,10.20
2023-04-01T03:17:18.034Z,8.80
2023-04-01T03:19:45.650Z,7.50
2023-04-01T03:22:13.452Z,8.20
2023-04-01T03:24:41.140Z,8.30
2023-04-01T03:27:08.911Z,8.80
2023-04-01T03:29:36.658Z,9.80
2023-04-01T03:32:04.407Z,8.20
2023-04-01T03:34:32.824Z,8.60
2023-04-01T03:37:00.627Z,10.10
2023-04-01T03:39:28.260Z,8.60
2023-04-01T03:41:56.465Z,8.50
2023-04-01T03:44:24.112Z,8.00
2023-04-01T03:46:51.763Z,10.40
2023-04-01T03:49:19.386Z,11.60
2023-04-01T03:51:47.044Z,10.00
2023-04-01T03:54:14.870Z,8.30
2023-04-01T03:56:42.514Z,8.80
2023-04-01T03:59:10.467Z,10.40
2023-04-01T04:01:38.147Z,7.60
2023-04-01T04:04:06.680Z,9.90
2023-04-01T04:06:34.613Z,9.40
2023-04-01T04:09:02.235Z,12.60
2023-04-01T04:11:33.772Z,8.10
2023-04-01T04:14:01.838Z,12.90
2023-04-01T04:16:29.672Z,8.60
2023-04-01T04:18:57.433Z,8.40
2023-04-01T04:21:25.571Z,9.90
2023-04-01T04:23:53.170Z,7.80
2023-04-01T04:26:21.102Z,8.70
2023-04-01T04:28:49.269Z,9.20
2023-04-01T04:31:25.220Z,7.90
2023-04-01T04:33:54.138Z,9.50
2023-04-01T04:36:23.322Z,8.90
2023-04-01T04:38:51.052Z,9.20
2023-04-01T04:41:20.531Z,8.70
2023-04-01T04:43:56.994Z,9.90
2023-04-01T04:46:25.396Z,9.40
2023-04-01T04:48:53.113Z,8.60
2023-04-01T04:51:22.288Z,9.10
2023-04-01T04:53:51.585Z,9.60
2023-04-01T04:56:23.360Z,9.70
2023-04-01T04:58:50.997Z,10.70
2023-04-01T05:01:19.400Z,10.50
2023-04-01T05:03:47.613Z,9.50
2023-04-01T05:06:17.953Z,9.50
2023-04-01T05:08:46.364Z,8.80
2023-04-01T05:11:19.905Z,10.60
2023-04-01T05:13:48.129Z,9.00
2023-04-01T05:16:20.327Z,10.90
2023-04-01T05:18:48.636Z,9.60
2023-04-01T05:21:16.921Z,13.70
2023-04-01T05:23:44.838Z,10.30
2023-04-01T05:26:15.648Z,10.80
2023-04-01T05:28:43.668Z,14.30
2023-04-01T05:31:11.753Z,10.50
2023-04-01T05:33:39.764Z,11.70
2023-04-01T05:36:14.390Z,11.80
2023-04-01T05:38:43.442Z,10.50
2023-04-01T05:41:11.190Z,11.70
2023-04-01T05:43:41.026Z,17.70
2023-04-01T05:46:09.037Z,9.20
2023-04-01T05:48:36.858Z,8.40
2023-04-01T05:51:05.728Z,9.00
2023-04-01T05:53:33.509Z,8.30
2023-04-01T05:56:05.093Z,9.20
2023-04-01T05:58:32.786Z,9.70
2023-04-01T06:01:19.716Z,8.80
2023-04-01T06:03:47.704Z,9.20
2023-04-01T06:06:24.106Z,8.40
2023-04-01T06:08:54.229Z,11.80
2023-04-01T06:12:02.243Z,12.20
2023-04-01T06:15:08.567Z,9.30
2023-04-01T06:17:36.501Z,10.20
2023-04-01T06:20:07.850Z,12.80
2023-04-01T06:23:09.431Z,9.40
2023-04-01T06:25:57.155Z,10.70
2023-04-01T06:28:30.706Z,12.50
2023-04-01T06:31:27.647Z,11.90
2023-04-01T06:34:20.924Z,8.60
2023-04-01T06:37:08.894Z,11.10
2023-04-01T06:40:02.838Z,12.10
2023-04-01T06:43:07.211Z,13.30
2023-04-01T06:46:02.263Z,16.80
2023-04-01T06:48:45.461Z,15.20
2023-04-01T06:52:02.600Z,12.00
2023-04-01T06:54:37.325Z,13.80
2023-04-01T06:57:25.103Z,16.40
2023-04-01T06:59:59.500Z,15.20
2023-04-01T07:02:42.662Z,17.80
2023-04-01T07:05:13.063Z,15.80
2023-04-01T07:07:46.001Z,13.30
2023-04-01T07:10:23.831Z,17.20
2023-04-01T07:12:57.223Z,19.80
2023-04-01T07:15:40.618Z,20.60
2023-04-01T07:18:33.408Z,23.00
2023-04-01T07:21:03.297Z,23.70
2023-04-01T07:23:40.238Z,19.50
2023-04-01T07:26:25.107Z,23.40
2023-04-01T07:28:54.548Z,24.10
2023-04-01T07:31:49.832Z,21.10
2023-04-01T07:34:30.915Z,22.60
2023-04-01T07:37:07.851Z,17.60
2023-04-01T07:40:15.875Z,22.10
2023-04-01T07:43:05.974Z,27.40
2023-04-01T07:46:09.599Z,24.30
2023-04-01T07:48:56.890Z,17.70
2023-04-01T07:51:57.263Z,20.60
2023-04-01T07:54:58.019Z,17.80
2023-04-01T07:57:44.554Z,15.30
2023-04-01T08:00:23.730Z,22.30
2023-04-01T08:03:16.145Z,20.90
2023-04-01T08:06:03.892Z,19.20
2023-04-01T08:09:00.971Z,20.60
2023-04-01T08:12:09.034Z,21.30
2023-04-01T08:14:45.296Z,19.80
2023-04-01T08:17:36.265Z,18.00
2023-04-01T08:20:46.537Z,14.20
2023-04-01T08:23:23.759Z,15.00
2023-04-01T08:25:57.454Z,12.30
2023-04-01T08:28:47.473Z,16.00
2023-04-01T08:31:27.601Z,13.50
2023-04-01T08:33:56.526Z,16.50
2023-04-01T08:36:36.986Z,12.90
2023-04-01T08:39:16.488Z,15.40
2023-04-01T08:41:52.889Z,16.50
2023-04-01T08:44:45.677Z,13.30
2023-04-01T08:47:38.830Z,10.40
2023-04-01T08:50:27.945Z,9.10
2023-04-01T08:53:16.744Z,17.00
2023-04-01T08:56:02.814Z,18.20
2023-04-01T08:59:12.860Z,18.80
2023-04-01T09:02:47.981Z,13.70
2023-04-01T09:05:44.813Z,15.00
2023-04-01T09:08:26.960Z,11.90
2023-04-01T09:11:11.041Z,14.30
2023-04-01T09:14:18.557Z,14.60
2023-04-01T09:17:26.045Z,11.40
2023-04-01T09:20:02.740Z,8.80
2023-04-01T09:22:58.598Z,9.40
2023-04-01T09:26:03.633Z,7.80
2023-04-01T09:29:02.603Z,6.50
2023-04-01T09:32:28.027Z,8.60
2023-04-01T09:35:15.578Z,6.40
2023-04-01T09:38:12.985Z,7.50
2023-04-01T09:41:16.941Z,8.20
2023-04-01T09:44:04.380Z,8.10
2023-04-01T09:47:07.081Z,7.70
2023-04-01T09:49:59.415Z,9.20
2023-04-01T09:52:56.213Z,7.60
2023-04-01T09:56:14.034Z,9.30
2023-04-01T09:59:11.699Z,7.40
2023-04-01T10:02:43.510Z,7.60
2023-04-01T10:05:36.869Z,6.40
2023-04-01T10:08:36.881Z,7.10
2023-04-01T10:11:12.226Z,5.40
2023-04-01T10:14:01.391Z,9.70
2023-04-01T10:17:26.603Z,7.60
2023-04-01T10:20:47.150Z,10.20
2023-04-01T10:23:31.245Z,7.30
2023-04-01T10:26:27.320Z,11.20
2023-04-01T10:29:11.869Z,7.10
2023-04-01T10:32:10.922Z,7.90
2023-04-01T10:35:09.030Z,7.20
2023-04-01T10:38:14.878Z,8.30
2023-04-01T10:41:24.487Z,6.70
2023-04-01T10:44:10.673Z,8.70
2023-04-01T10:47:35.503Z,7.90
2023-04-01T10:50:31.313Z,8.20
2023-04-01T10:53:14.069Z,7.30
2023-04-01T10:56:16.503Z,9.50
2023-04-01T10:58:57.055Z,8.40
2023-04-01T11:01:57.640Z,11.20
2023-04-01T11:05:06.401Z,8.10
2023-04-01T11:07:45.140Z,7.10
2023-04-01T11:10:58.780Z,9.30
2023-04-01T11:13:54.010Z,6.50
2023-04-01T11:17:04.997Z,7.40
2023-04-01T11:19:57.680Z,5.70
2023-04-01T11:22:46.629Z,5.90
2023-04-01T11:25:43.206Z,4.90
2023-04-01T11:28:19.683Z,8.00
2023-04-01T11:31:05.805Z,23.60
2023-04-01T11:33:56.751Z,8.70
2023-04-01T11:37:10.907Z,11.20
2023-04-01T11:39:44.547Z,15.00
2023-04-01T11:42:33.933Z,21.40
2023-04-01T11:45:37.928Z,11.70
2023-04-01T11:48:54.174Z,12.70
2023-04-01T11:52:18.616Z,9.10
2023-04-01T11:55:06.181Z,8.60
2023-04-01T11:58:27.124Z,7.50
2023-04-01T12:01:27.959Z,9.00
2023-04-01T12:04:28.825Z,8.70
2023-04-01T12:07:14.505Z,14.00
2023-04-01T12:09:53.494Z,9.40
2023-04-01T12:13:00.654Z,11.20
2023-04-01T12:15:59.646Z,18.20
2023-04-01T12:18:42.186Z,16.60
2023-04-01T12:21:39.139Z,18.60
2023-04-01T12:24:22.086Z,18.20
2023-04-01T12:27:08.189Z,13.20
2023-04-01T12:30:15.627Z,9.60
2023-04-01T12:33:22.226Z,12.10
2023-04-01T12:36:45.591Z,8.70
2023-04-01T12:39:54.089Z,9.80
2023-04-01T12:42:56.933Z,10.60
2023-04-01T12:45:37.048Z,9.60
2023-04-01T12:48:40.711Z,11.30
2023-04-01T12:51:57.588Z,9.50
2023-04-01T12:54:49.909Z,9.00
2023-04-01T12:57:44.667Z,13.00
2023-04-01T13:00:46.906Z,9.30
2023-04-01T13:03:20.714Z,12.30
2023-04-01T13:06:25.826Z,12.10
2023-04-01T13:09:30.429Z,12.70
2023-04-01T13:11:58.024Z,13.40
2023-04-01T13:15:06.715Z,12.00
2023-04-01T13:18:18.530Z,11.90
2023-04-01T13:21:22.024Z,13.00
2023-04-01T13:24:30.744Z,13.00
2023-04-01T13:27:22.430Z,12.70
2023-04-01T13:30:23.853Z,11.10
2023-04-01T13:33:30.719Z,9.20
2023-04-01T13:36:41.320Z,10.70
2023-04-01T13:39:26.202Z,10.30
2023-04-01T13:42:39.004Z,10.20
2023-04-01T13:45:37.578Z,23.00
2023-04-01T13:48:33.874Z,32.20
2023-04-01T13:51:20.196Z,17.10
2023-04-01T13:54:35.468Z,13.90
2023-04-01T13:57:24.916Z,13.90
2023-04-01T14:00:28.651Z,12.50
2023-04-01T14:03:42.735Z,17.30
2023-04-01T14:06:40.465Z,25.60
2023-04-01T14:09:46.045Z,20.40
2023-04-01T14:12:50.256Z,17.00
2023-04-01T14:15:43.978Z,14.10
2023-04-01T14:19:13.115Z,14.60
2023-04-01T14:22:13.262Z,11.60
2023-04-01T14:25:05.563Z,13.00
2023-04-01T14:28:12.943Z,9.90
2023-04-01T14:31:24.305Z,8.90
2023-04-01T14:34:29.016Z,9.60
2023-04-01T14:37:14.153Z,14.10
2023-04-01T14:40:13.302Z,11.50
2023-04-01T14:43:20.051Z,10.80
2023-04-01T14:45:53.405Z,13.10
2023-04-01T14:49:00.382Z,10.40
2023-04-01T14:51:39.614Z,9.20
2023-04-01T14:54:23.715Z,9.20
2023-04-01T14:57:12.360Z,7.80
2023-04-01T14:59:49.049Z,9.10
2023-04-01T15:02:50.608Z,8.00
2023-04-01T15:06:06.374Z,8.90
2023-04-01T15:08:45.491Z,8.20
2023-04-01T15:11:42.591Z,5.90
2023-04-01T15:14:39.459Z,8.30
2023-04-01T15:17:29.802Z,7.80
2023-04-01T15:20:27.418Z,7.40
2023-04-01T15:23:28.880Z,7.80
2023-04-01T15:26:31.960Z,10.60
2023-04-01T15:29:58.829Z,10.80
2023-04-01T15:32:57.473Z,9.60
2023-04-01T15:35:46.749Z,8.80
2023-04-01T15:38:51.579Z,7.30
2023-04-01T15:41:42.203Z,8.60
2023-04-01T15:45:07.172Z,7.20
2023-04-01T15:47:42.345Z,7.10
2023-04-01T15:51:05.258Z,7.00
2023-04-01T15:54:07.148Z,12.20
2023-04-01T15:57:03.489Z,10.00
2023-04-01T16:00:03.424Z,10.40
2023-04-01T16:02:52.219Z,11.60
2023-04-01T16:05:28.809Z,12.70
2023-04-01T16:08:08.610Z,12.20
2023-04-01T16:10:51.176Z,11.60
2023-04-01T16:13:39.901Z,13.60
2023-04-01T16:16:52.532Z,14.80
2023-04-01T16:19:42.783Z,9.80
2023-04-01T16:22:24.105Z,9.90
2023-04-01T16:25:18.668Z,12.70
2023-04-01T16:28:11.057Z,24.70
2023-04-01T16:30:48.931Z,27.00
2023-04-01T16:33:35.134Z,12.10
2023-04-01T16:36:21.518Z,10.30
2023-04-01T16:39:30.660Z,17.80
2023-04-01T16:42:07.380Z,14.50
2023-04-01T16:45:36.743Z,13.20
2023-04-01T16:48:17.368Z,11.10
2023-04-01T16:51:03.729Z,10.00
2023-04-01T16:53:54.970Z,9.50
2023-04-01T16:56:28.522Z,13.00
2023-04-01T16:59:07.474Z,12.80
2023-04-01T17:02:02.908Z,11.00
2023-04-01T17:04:48.010Z,10.70
2023-04-01T17:07:48.556Z,10.60
2023-04-01T17:10:59.224Z,14.50
2023-04-01T17:14:10.627Z,15.50
2023-04-01T17:17:45.457Z,19.40
2023-04-01T17:20:41.150Z,17.40
2023-04-01T17:23:27.977Z,15.70
2023-04-01T17:26:22.880Z,20.00
2023-04-01T17:29:25.961Z,15.00
2023-04-01T17:32:08.934Z,16.50
2023-04-01T17:35:26.544Z,21.00
2023-04-01T17:38:37.498Z,20.50
2023-04-01T17:41:32.759Z,21.50
2023-04-01T17:44:22.892Z,19.40
2023-04-01T17:47:32.650Z,19.20
2023-04-01T17:50:17.295Z,28.70
2023-04-01T17:53:25.814Z,26.60
2023-04-01T17:56:15.379Z,28.10
2023-04-01T17:58:59.954Z,22.20
2023-04-01T18:01:47.308Z,28.20
2023-04-01T18:04:43.093Z,24.90
2023-04-01T18:07:37.046Z,27.40
2023-04-01T18:10:42.059Z,26.70
2023-04-01T18:13:15.908Z,22.80
2023-04-01T18:16:02.651Z,22.60
2023-04-01T18:19:33.785Z,18.60
2023-04-01T18:22:19.958Z,20.00
2023-04-01T18:25:12.542Z,22.20
2023-04-01T18:28:36.332Z,29.70
2023-04-01T18:31:03.937Z,31.40
2023-04-01T18:34:17.765Z,31.20
2023-04-01T18:37:13.266Z,28.40
2023-04-01T18:39:52.802Z,27.40
2023-04-01T18:42:42.535Z,22.60
2023-04-01T18:45:58.487Z,20.10
2023-04-01T18:49:03.761Z,19.60
2023-04-01T18:51:54.865Z,33.20
2023-04-01T18:54:35.795Z,29.20
2023-04-01T18:57:14.135Z,25.50
2023-04-01T18:59:56.534Z,28.20
2023-04-01T19:02:45.391Z,31.80
2023-04-01T19:05:39.714Z,28.40
2023-04-01T19:08:32.693Z,26.80
2023-04-01T19:11:36.693Z,26.20
2023-04-01T19:14:49.652Z,18.60
2023-04-01T19:17:43.691Z,21.60
2023-04-01T19:20:57.800Z,16.10
2023-04-01T19:24:18.616Z,19.40
2023-04-01T19:27:35.535Z,16.30
2023-04-01T19:30:25.012Z,19.10
2023-04-01T19:33:20.803Z,18.20
2023-04-01T19:36:00.665Z,19.10
2023-04-01T19:38:40.302Z,27.30
2023-04-01T19:41:52.676Z,40.20
2023-04-01T19:44:54.300Z,26.30
2023-04-01T19:47:52.989Z,24.20
2023-04-01T19:50:50.766Z,26.10
2023-04-01T19:53:38.528Z,25.20
2023-04-01T19:56:19.465Z,25.60
2023-04-01T19:58:57.676Z,26.50
2023-04-01T20:01:44.793Z,27.10
2023-04-01T20:04:27.819Z,26.10
2023-04-01T20:07:10.599Z,25.60
2023-04-01T20:09:53.898Z,26.40
2023-04-01T20:12:46.197Z,28.90
2023-04-01T20:15:28.131Z,26.70
2023-04-01T20:18:01.078Z,23.90
2023-04-01T20:20:32.734Z,30.80
2023-04-01T20:23:40.445Z,32.90
2023-04-01T20:26:22.071Z,32.40
2023-04-01T20:29:22.839Z,30.40
2023-04-01T20:32:09.418Z,30.50
2023-04-01T20:34:41.949Z,32.70
2023-04-01T20:37:38.871Z,31.50
2023-04-01T20:40:44.062Z,36.00
2023-04-01T20:43:33.830Z,30.10
2023-04-01T20:46:28.197Z,33.90
2023-04-01T20:49:29.245Z,31.90
2023-04-01T20:52:18.659Z,31.90
2023-04-01T20:55:21.266Z,33.30
2023-04-01T20:58:21.452Z,33.20
2023-04-01T21:01:07.228Z,34.90
2023-04-01T21:04:11.556Z,31.80
2023-04-01T21:07:21.825Z,38.80
2023-04-01T21:10:26.948Z,37.70
2023-04-01T21:13:18.153Z,31.50
2023-04-01T21:16:20.088Z,40.40
2023-04-01T21:19:26.661Z,39.30
2023-04-01T21:22:32.683Z,37.90
2023-04-01T21:26:06.930Z,34.30
2023-04-01T21:29:11.936Z,38.40
2023-04-01T21:31:58.005Z,34.40
2023-04-01T21:34:52.670Z,34.00
2023-04-01T21:37:46.395Z,36.20
2023-04-01T21:41:17.646Z,30.70
2023-04-01T21:44:20.545Z,32.20
2023-04-01T21:47:05.179Z,32.20
2023-04-01T21:50:06.524Z,34.60
2023-04-01T21:53:13.094Z,30.90
2023-04-01T21:56:23.648Z,39.10
2023-04-01T21:59:25.289Z,36.90
2023-04-01T22:02:11.628Z,38.50
2023-04-01T22:05:08.341Z,35.40
2023-04-01T22:08:18.284Z,37.50
2023-04-01T22:11:02.380Z,39.10
2023-04-01T22:13:44.207Z,40.80
2023-04-01T22:17:04.222Z,36.60
2023-04-01T22:19:51.886Z,36.30
2023-04-01T22:22:39.537Z,36.70
2023-04-01T22:25:27.302Z,35.80
2023-04-01T22:28:20.441Z,35.80
2023-04-01T22:31:02.148Z,37.80
2023-04-01T22:34:06.702Z,41.00
2023-04-01T22:36:58.930Z,42.20
2023-04-01T22:39:54.803Z,42.00
2023-04-01T22:42:43.258Z,38.80
2023-04-01T22:45:13.902Z,35.20
2023-04-01T22:48:12.558Z,35.30
2023-04-01T22:50:58.576Z,35.00
2023-04-01T22:53:45.928Z,35.90
2023-04-01T22:56:24.725Z,36.00
2023-04-01T22:59:05.385Z,41.80
2023-04-01T23:01:46.625Z,37.80
2023-04-01T23:04:22.729Z,35.80
2023-04-01T23:06:58.701Z,41.30
2023-04-01T23:09:34.607Z,39.90
2023-04-01T23:12:15.073Z,39.40
2023-04-01T23:14:56.110Z,28.20
2023-04-01T23:17:48.060Z,33.40
2023-04-01T23:20:51.332Z,38.80
2023-04-01T23:23:51.704Z,39.30
2023-04-01T23:26:34.990Z,36.00
2023-04-01T23:29:05.447Z,39.40
2023-04-01T23:31:39.554Z,38.20
2023-04-01T23:34:12.962Z,40.40
2023-04-01T23:36:49.001Z,36.30
2023-04-01T23:39:46.472Z,37.90
2023-04-01T23:42:41.470Z,37.00
2023-04-01T23:45:21.547Z,40.80
2023-04-01T23:47:51.382Z,35.10
2023-04-01T23:50:26.325Z,36.40
2023-04-01T23:53:04.042Z,37.00
2023-04-01T23:55:35.997Z,49.70
2023-04-01T23:58:17.291Z,42.60
